sensor_id;sensor_type;location;lat;lon;timestamp;pressure;altitude;pressure_sealevel;temperature;humidity
84677;BME280;74901;55.024;73.254;2024-02-28T00:01:48;102199.72;;;-4.19;75.94
84677;BME280;74901;55.024;73.254;2024-02-28T00:04:17;102200.28;;;-4.17;77.10
84677;BME280;74901;55.024;73.254;2024-02-28T00:06:45;102198.41;;;-4.17;76.91
84677;BME280;74901;55.024;73.254;2024-02-28T00:09:14;102195.47;;;-4.15;76.39
84677;BME280;74901;55.024;73.254;2024-02-28T00:11:43;102196.84;;;-4.13;76.27
84677;BME280;74901;55.024;73.254;2024-02-28T00:14:12;102195.53;;;-4.10;76.08
84677;BME280;74901;55.024;73.254;2024-02-28T00:16:43;102191.53;;;-4.07;75.97
84677;BME280;74901;55.024;73.254;2024-02-28T00:19:13;102183.69;;;-4.14;76.13
84677;BME280;74901;55.024;73.254;2024-02-28T00:21:41;102186.38;;;-4.14;76.20
84677;BME280;74901;55.024;73.254;2024-02-28T00:24:10;102188.72;;;-4.18;76.81
84677;BME280;74901;55.024;73.254;2024-02-28T00:26:41;102183.94;;;-4.16;76.57
84677;BME280;74901;55.024;73.254;2024-02-28T00:29:10;102183.69;;;-4.14;77.04
84677;BME280;74901;55.024;73.254;2024-02-28T00:31:39;102186.41;;;-4.09;76.45
84677;BME280;74901;55.024;73.254;2024-02-28T00:34:09;102189.38;;;-4.05;76.77
84677;BME280;74901;55.024;73.254;2024-02-28T00:36:38;102194.22;;;-4.07;77.14
84677;BME280;74901;55.024;73.254;2024-02-28T00:39:06;102195.25;;;-4.14;76.81
84677;BME280;74901;55.024;73.254;2024-02-28T00:41:35;102195.25;;;-4.14;76.35
84677;BME280;74901;55.024;73.254;2024-02-28T00:44:04;102188.56;;;-4.06;77.20
84677;BME280;74901;55.024;73.254;2024-02-28T00:46:33;102184.88;;;-4.00;76.33
84677;BME280;74901;55.024;73.254;2024-02-28T00:49:01;102192.97;;;-3.95;76.78
84677;BME280;74901;55.024;73.254;2024-02-28T00:51:32;102189.00;;;-3.92;76.40
84677;BME280;74901;55.024;73.254;2024-02-28T00:54:03;102190.09;;;-3.88;76.46
84677;BME280;74901;55.024;73.254;2024-02-28T00:56:32;102185.28;;;-3.86;76.63
84677;BME280;74901;55.024;73.254;2024-02-28T00:59:01;102196.66;;;-3.79;75.99
84677;BME280;74901;55.024;73.254;2024-02-28T01:01:29;102186.19;;;-3.76;76.26
84677;BME280;74901;55.024;73.254;2024-02-28T01:03:58;102187.28;;;-3.77;75.91
84677;BME280;74901;55.024;73.254;2024-02-28T01:06:26;102184.88;;;-3.73;76.26
84677;BME280;74901;55.024;73.254;2024-02-28T01:08:57;102174.63;;;-3.76;76.45
84677;BME280;74901;55.024;73.254;2024-02-28T01:11:26;102161.19;;;-3.76;76.30
84677;BME280;74901;55.024;73.254;2024-02-28T01:13:54;102177.31;;;-3.76;76.02
84677;BME280;74901;55.024;73.254;2024-02-28T01:16:23;102168.97;;;-3.80;76.09
84677;BME280;74901;55.024;73.254;2024-02-28T01:18:52;102171.41;;;-3.78;76.58
84677;BME280;74901;55.024;73.254;2024-02-28T01:21:20;102161.34;;;-3.88;75.78
84677;BME280;74901;55.024;73.254;2024-02-28T01:23:49;102163.72;;;-3.96;76.72
84677;BME280;74901;55.024;73.254;2024-02-28T01:26:19;102163.06;;;-4.09;76.96
84677;BME280;74901;55.024;73.254;2024-02-28T01:28:49;102156.47;;;-4.23;76.92
84677;BME280;74901;55.024;73.254;2024-02-28T01:31:18;102154.94;;;-4.40;76.95
84677;BME280;74901;55.024;73.254;2024-02-28T01:33:47;102158.75;;;-4.58;77.46
84677;BME280;74901;55.024;73.254;2024-02-28T01:36:16;102156.19;;;-4.70;77.61
84677;BME280;74901;55.024;73.254;2024-02-28T01:38:44;102152.31;;;-4.79;77.23
84677;BME280;74901;55.024;73.254;2024-02-28T01:41:18;102150.25;;;-4.72;77.59
84677;BME280;74901;55.024;73.254;2024-02-28T01:43:50;102154.38;;;-4.64;77.43
84677;BME280;74901;55.024;73.254;2024-02-28T01:46:23;102165.47;;;-4.56;77.67
84677;BME280;74901;55.024;73.254;2024-02-28T01:48:52;102153.50;;;-4.48;76.68
84677;BME280;74901;55.024;73.254;2024-02-28T01:51:22;102162.41;;;-4.42;76.97
84677;BME280;74901;55.024;73.254;2024-02-28T01:53:53;102150.03;;;-4.43;77.30
84677;BME280;74901;55.024;73.254;2024-02-28T01:56:24;102154.81;;;-4.51;76.78
84677;BME280;74901;55.024;73.254;2024-02-28T01:58:54;102153.88;;;-4.61;76.84
84677;BME280;74901;55.024;73.254;2024-02-28T02:01:25;102162.81;;;-4.77;77.60
84677;BME280;74901;55.024;73.254;2024-02-28T02:03:53;102159.09;;;-4.93;77.22
84677;BME280;74901;55.024;73.254;2024-02-28T02:06:22;102160.25;;;-5.06;77.83
84677;BME280;74901;55.024;73.254;2024-02-28T02:08:51;102161.53;;;-5.13;77.67
84677;BME280;74901;55.024;73.254;2024-02-28T02:11:20;102162.75;;;-5.21;77.41
84677;BME280;74901;55.024;73.254;2024-02-28T02:13:53;102169.16;;;-5.22;77.61
84677;BME280;74901;55.024;73.254;2024-02-28T02:16:22;102167.97;;;-5.31;77.44
84677;BME280;74901;55.024;73.254;2024-02-28T02:18:53;102175.38;;;-5.38;78.25
84677;BME280;74901;55.024;73.254;2024-02-28T02:21:23;102171.22;;;-5.46;77.62
84677;BME280;74901;55.024;73.254;2024-02-28T02:24:08;102174.38;;;-5.49;78.33
84677;BME280;74901;55.024;73.254;2024-02-28T02:26:36;102180.16;;;-5.40;77.66
84677;BME280;74901;55.024;73.254;2024-02-28T02:29:05;102184.06;;;-5.31;78.00
84677;BME280;74901;55.024;73.254;2024-02-28T02:31:36;102172.59;;;-5.26;77.86
84677;BME280;74901;55.024;73.254;2024-02-28T02:34:04;102179.06;;;-5.22;77.61
84677;BME280;74901;55.024;73.254;2024-02-28T02:36:34;102174.53;;;-5.22;77.32
84677;BME280;74901;55.024;73.254;2024-02-28T02:39:03;102175.50;;;-5.28;77.35
84677;BME280;74901;55.024;73.254;2024-02-28T02:41:33;102173.81;;;-5.34;77.95
84677;BME280;74901;55.024;73.254;2024-02-28T02:44:02;102166.16;;;-5.42;77.55
84677;BME280;74901;55.024;73.254;2024-02-28T02:46:30;102180.16;;;-5.40;77.83
84677;BME280;74901;55.024;73.254;2024-02-28T02:49:00;102170.13;;;-5.28;77.95
84677;BME280;74901;55.024;73.254;2024-02-28T02:51:29;102164.63;;;-5.21;77.98
84677;BME280;74901;55.024;73.254;2024-02-28T02:53:58;102156.25;;;-5.25;77.77
84677;BME280;74901;55.024;73.254;2024-02-28T02:56:26;102156.25;;;-5.25;78.15
84677;BME280;74901;55.024;73.254;2024-02-28T02:58:57;102157.03;;;-5.24;77.93
84677;BME280;74901;55.024;73.254;2024-02-28T03:01:26;102161.69;;;-5.20;77.73
84677;BME280;74901;55.024;73.254;2024-02-28T03:03:55;102152.59;;;-5.19;77.62
84677;BME280;74901;55.024;73.254;2024-02-28T03:06:23;102122.81;;;-5.39;77.85
84677;BME280;74901;55.024;73.254;2024-02-28T03:08:52;102152.66;;;-5.14;77.24
84677;BME280;74901;55.024;73.254;2024-02-28T03:11:21;102157.78;;;-5.12;77.54
84677;BME280;74901;55.024;73.254;2024-02-28T03:13:49;102137.47;;;-5.08;77.64
84677;BME280;74901;55.024;73.254;2024-02-28T03:16:20;102138.34;;;-5.03;77.48
84677;BME280;74901;55.024;73.254;2024-02-28T03:18:49;102137.81;;;-5.00;77.00
84677;BME280;74901;55.024;73.254;2024-02-28T03:21:17;102144.09;;;-4.94;77.51
84677;BME280;74901;55.024;73.254;2024-02-28T03:23:47;102139.50;;;-4.94;77.47
84677;BME280;74901;55.024;73.254;2024-02-28T03:26:16;102149.94;;;-4.97;77.28
84677;BME280;74901;55.024;73.254;2024-02-28T03:28:45;102151.31;;;-4.95;77.33
84677;BME280;74901;55.024;73.254;2024-02-28T03:31:13;102137.41;;;-4.92;77.40
84677;BME280;74901;55.024;73.254;2024-02-28T03:33:44;102155.50;;;-4.82;76.81
84677;BME280;74901;55.024;73.254;2024-02-28T03:36:13;102141.16;;;-4.71;76.62
84677;BME280;74901;55.024;73.254;2024-02-28T03:38:42;102140.09;;;-4.70;76.87
84677;BME280;74901;55.024;73.254;2024-02-28T03:41:11;102151.72;;;-4.64;75.95
84677;BME280;74901;55.024;73.254;2024-02-28T03:43:39;102133.84;;;-4.54;76.42
84677;BME280;74901;55.024;73.254;2024-02-28T03:46:08;102134.81;;;-4.38;76.01
84677;BME280;74901;55.024;73.254;2024-02-28T03:48:37;102129.75;;;-4.34;75.75
84677;BME280;74901;55.024;73.254;2024-02-28T03:51:08;102132.00;;;-4.26;75.70
84677;BME280;74901;55.024;73.254;2024-02-28T03:53:36;102117.56;;;-4.20;75.54
84677;BME280;74901;55.024;73.254;2024-02-28T03:56:06;102119.28;;;-4.09;75.01
84677;BME280;74901;55.024;73.254;2024-02-28T03:58:35;102121.22;;;-3.99;74.80
84677;BME280;74901;55.024;73.254;2024-02-28T04:01:28;102114.53;;;-3.97;74.52
84677;BME280;74901;55.024;73.254;2024-02-28T04:03:57;102128.78;;;-3.96;74.96
84677;BME280;74901;55.024;73.254;2024-02-28T04:06:27;102119.09;;;-3.97;74.21
84677;BME280;74901;55.024;73.254;2024-02-28T04:08:56;102121.84;;;-3.92;74.57
84677;BME280;74901;55.024;73.254;2024-02-28T04:11:24;102116.63;;;-4.04;74.33
84677;BME280;74901;55.024;73.254;2024-02-28T04:13:53;102118.59;;;-3.94;74.27
84677;BME280;74901;55.024;73.254;2024-02-28T04:16:22;102102.53;;;-3.89;73.77
84677;BME280;74901;55.024;73.254;2024-02-28T04:18:51;102109.28;;;-3.82;74.16
84677;BME280;74901;55.024;73.254;2024-02-28T04:21:19;102113.94;;;-3.72;72.95
84677;BME280;74901;55.024;73.254;2024-02-28T04:23:50;102105.94;;;-3.62;73.10
84677;BME280;74901;55.024;73.254;2024-02-28T04:26:19;102109.25;;;-3.50;73.08
84677;BME280;74901;55.024;73.254;2024-02-28T04:28:47;102107.44;;;-3.39;72.39
84677;BME280;74901;55.024;73.254;2024-02-28T04:31:16;102104.13;;;-3.51;72.56
84677;BME280;74901;55.024;73.254;2024-02-28T04:33:45;102098.03;;;-3.42;71.11
84677;BME280;74901;55.024;73.254;2024-02-28T04:36:16;102093.66;;;-3.53;72.19
84677;BME280;74901;55.024;73.254;2024-02-28T04:38:45;102094.13;;;-3.61;71.78
84677;BME280;74901;55.024;73.254;2024-02-28T04:41:15;102107.38;;;-3.49;70.51
84677;BME280;74901;55.024;73.254;2024-02-28T04:43:44;102102.66;;;-3.32;70.42
84677;BME280;74901;55.024;73.254;2024-02-28T04:46:13;102101.75;;;-3.01;69.92
84677;BME280;74901;55.024;73.254;2024-02-28T04:48:41;102105.31;;;-2.85;69.97
84677;BME280;74901;55.024;73.254;2024-02-28T04:51:15;102101.91;;;-2.60;69.51
84677;BME280;74901;55.024;73.254;2024-02-28T04:53:45;102099.81;;;-2.28;69.11
84677;BME280;74901;55.024;73.254;2024-02-28T04:56:17;102094.47;;;-2.23;67.31
84677;BME280;74901;55.024;73.254;2024-02-28T04:58:46;102101.09;;;-2.66;68.53
84677;BME280;74901;55.024;73.254;2024-02-28T05:01:15;102105.19;;;-2.48;68.27
84677;BME280;74901;55.024;73.254;2024-02-28T05:03:47;102092.03;;;-2.24;67.99
84677;BME280;74901;55.024;73.254;2024-02-28T05:06:16;102092.03;;;-2.09;67.15
84677;BME280;74901;55.024;73.254;2024-02-28T05:08:45;102102.53;;;-1.97;66.51
84677;BME280;74901;55.024;73.254;2024-02-28T05:11:15;102093.38;;;-1.66;66.47
84677;BME280;74901;55.024;73.254;2024-02-28T05:13:44;102096.56;;;-1.24;65.70
84677;BME280;74901;55.024;73.254;2024-02-28T05:16:13;102102.34;;;-0.86;64.86
84677;BME280;74901;55.024;73.254;2024-02-28T05:18:44;102094.53;;;-0.88;64.31
84677;BME280;74901;55.024;73.254;2024-02-28T05:21:13;102097.47;;;-0.79;63.41
84677;BME280;74901;55.024;73.254;2024-02-28T05:23:42;102093.91;;;-0.69;63.31
84677;BME280;74901;55.024;73.254;2024-02-28T05:26:11;102084.50;;;-0.77;63.45
84677;BME280;74901;55.024;73.254;2024-02-28T05:28:41;102086.38;;;-0.77;63.39
84677;BME280;74901;55.024;73.254;2024-02-28T05:31:26;102085.84;;;-0.74;62.31
84677;BME280;74901;55.024;73.254;2024-02-28T05:34:01;102074.53;;;-0.82;62.37
84677;BME280;74901;55.024;73.254;2024-02-28T05:36:33;102090.13;;;-0.73;62.32
84677;BME280;74901;55.024;73.254;2024-02-28T05:39:02;102082.72;;;-1.02;61.04
84677;BME280;74901;55.024;73.254;2024-02-28T05:41:34;102086.06;;;-1.30;62.55
84677;BME280;74901;55.024;73.254;2024-02-28T05:44:04;102087.13;;;-1.31;61.89
84677;BME280;74901;55.024;73.254;2024-02-28T05:46:33;102081.38;;;-0.99;61.38
84677;BME280;74901;55.024;73.254;2024-02-28T05:49:03;102077.84;;;-1.05;61.68
84677;BME280;74901;55.024;73.254;2024-02-28T05:51:32;102078.03;;;-0.86;61.42
84677;BME280;74901;55.024;73.254;2024-02-28T05:54:01;102083.22;;;-0.90;60.25
84677;BME280;74901;55.024;73.254;2024-02-28T05:56:30;102086.97;;;-0.80;60.80
84677;BME280;74901;55.024;73.254;2024-02-28T05:58:59;102080.25;;;-0.39;60.02
84677;BME280;74901;55.024;73.254;2024-02-28T06:01:29;102083.59;;;-0.18;59.31
84677;BME280;74901;55.024;73.254;2024-02-28T06:04:03;102084.53;;;-0.33;59.00
84677;BME280;74901;55.024;73.254;2024-02-28T06:06:32;102070.03;;;-0.47;59.12
84677;BME280;74901;55.024;73.254;2024-02-28T06:09:01;102064.56;;;-0.81;58.92
84677;BME280;74901;55.024;73.254;2024-02-28T06:11:29;102067.34;;;-0.52;58.98
84677;BME280;74901;55.024;73.254;2024-02-28T06:14:00;102057.88;;;-0.11;58.34
84677;BME280;74901;55.024;73.254;2024-02-28T06:16:30;102067.16;;;-0.22;58.21
84677;BME280;74901;55.024;73.254;2024-02-28T06:18:59;102056.69;;;0.00;57.57
84677;BME280;74901;55.024;73.254;2024-02-28T06:21:28;102056.41;;;0.36;57.77
84677;BME280;74901;55.024;73.254;2024-02-28T06:23:57;102068.69;;;0.52;57.28
84677;BME280;74901;55.024;73.254;2024-02-28T06:26:26;102053.53;;;0.51;56.09
84677;BME280;74901;55.024;73.254;2024-02-28T06:28:55;102062.72;;;0.55;56.26
84677;BME280;74901;55.024;73.254;2024-02-28T06:31:28;102059.59;;;0.67;56.02
84677;BME280;74901;55.024;73.254;2024-02-28T06:33:59;102060.16;;;0.88;56.59
84677;BME280;74901;55.024;73.254;2024-02-28T06:36:29;102057.97;;;0.90;54.56
84677;BME280;74901;55.024;73.254;2024-02-28T06:39:00;102070.06;;;0.21;55.78
84677;BME280;74901;55.024;73.254;2024-02-28T06:41:29;102057.31;;;-0.08;55.55
84677;BME280;74901;55.024;73.254;2024-02-28T06:43:58;102060.22;;;-0.33;56.33
84677;BME280;74901;55.024;73.254;2024-02-28T06:46:27;102054.09;;;-0.10;56.15
84677;BME280;74901;55.024;73.254;2024-02-28T06:48:56;102047.41;;;0.40;55.89
84677;BME280;74901;55.024;73.254;2024-02-28T06:51:26;102042.22;;;0.49;54.34
84677;BME280;74901;55.024;73.254;2024-02-28T06:53:55;102047.91;;;0.71;54.51
84677;BME280;74901;55.024;73.254;2024-02-28T06:56:24;102045.06;;;0.81;53.59
84677;BME280;74901;55.024;73.254;2024-02-28T06:58:53;102027.91;;;0.91;53.88
84677;BME280;74901;55.024;73.254;2024-02-28T07:01:40;102025.84;;;0.59;54.43
84677;BME280;74901;55.024;73.254;2024-02-28T07:04:10;102031.41;;;0.44;53.50
84677;BME280;74901;55.024;73.254;2024-02-28T07:06:40;102035.84;;;0.35;53.96
84677;BME280;74901;55.024;73.254;2024-02-28T07:09:09;102032.13;;;-0.03;54.20
84677;BME280;74901;55.024;73.254;2024-02-28T07:11:38;102025.38;;;-0.06;54.56
84677;BME280;74901;55.024;73.254;2024-02-28T07:14:08;102025.03;;;0.06;54.10
84677;BME280;74901;55.024;73.254;2024-02-28T07:16:36;102025.22;;;0.15;53.35
84677;BME280;74901;55.024;73.254;2024-02-28T07:19:05;102020.63;;;0.15;53.32
84677;BME280;74901;55.024;73.254;2024-02-28T07:21:35;102015.34;;;0.29;52.82
84677;BME280;74901;55.024;73.254;2024-02-28T07:24:06;102023.84;;;0.17;53.01
84677;BME280;74901;55.024;73.254;2024-02-28T07:26:36;102017.00;;;-0.04;52.97
84677;BME280;74901;55.024;73.254;2024-02-28T07:29:06;102024.13;;;-0.13;53.02
84677;BME280;74901;55.024;73.254;2024-02-28T07:34:59;102016.72;;;-0.75;52.44
84677;BME280;74901;55.024;73.254;2024-02-28T07:37:28;102017.78;;;-0.32;52.67
84677;BME280;74901;55.024;73.254;2024-02-28T07:39:59;102008.88;;;0.25;51.47
84677;BME280;74901;55.024;73.254;2024-02-28T07:42:27;102006.31;;;0.62;50.94
84677;BME280;74901;55.024;73.254;2024-02-28T07:44:56;101999.84;;;0.82;49.66
84677;BME280;74901;55.024;73.254;2024-02-28T07:47:25;102019.78;;;0.91;50.09
84677;BME280;74901;55.024;73.254;2024-02-28T07:49:54;102009.06;;;1.05;50.33
84677;BME280;74901;55.024;73.254;2024-02-28T07:52:23;102021.78;;;0.80;49.66
84677;BME280;74901;55.024;73.254;2024-02-28T07:54:51;102014.28;;;0.54;49.05
84677;BME280;74901;55.024;73.254;2024-02-28T07:57:22;102012.25;;;-0.17;50.04
84677;BME280;74901;55.024;73.254;2024-02-28T07:59:51;102000.09;;;-0.54;50.46
84677;BME280;74901;55.024;73.254;2024-02-28T08:02:19;102003.53;;;-0.43;50.36
84677;BME280;74901;55.024;73.254;2024-02-28T08:04:48;102011.25;;;-0.65;49.67
84677;BME280;74901;55.024;73.254;2024-02-28T08:07:17;102014.19;;;-1.06;50.19
84677;BME280;74901;55.024;73.254;2024-02-28T08:09:46;102007.19;;;-1.12;50.66
84677;BME280;74901;55.024;73.254;2024-02-28T08:12:16;102016.88;;;-1.11;49.59
84677;BME280;74901;55.024;73.254;2024-02-28T08:14:46;102008.31;;;-0.69;49.00
84677;BME280;74901;55.024;73.254;2024-02-28T08:17:14;102000.69;;;-0.57;48.30
84677;BME280;74901;55.024;73.254;2024-02-28T08:19:43;102010.03;;;-0.44;48.37
84677;BME280;74901;55.024;73.254;2024-02-28T08:22:12;101999.38;;;-0.64;48.19
84677;BME280;74901;55.024;73.254;2024-02-28T08:24:41;102000.59;;;-0.91;49.38
84677;BME280;74901;55.024;73.254;2024-02-28T08:27:09;102003.91;;;-1.04;49.41
84677;BME280;74901;55.024;73.254;2024-02-28T08:29:40;101993.56;;;-0.87;49.28
84677;BME280;74901;55.024;73.254;2024-02-28T08:32:13;102004.56;;;-0.78;48.92
84677;BME280;74901;55.024;73.254;2024-02-28T08:34:44;102003.91;;;-0.60;48.89
84677;BME280;74901;55.024;73.254;2024-02-28T08:37:13;101992.66;;;-0.33;48.28
84677;BME280;74901;55.024;73.254;2024-02-28T08:39:42;101996.16;;;-0.32;47.70
84677;BME280;74901;55.024;73.254;2024-02-28T08:42:11;101983.00;;;-0.10;47.33
84677;BME280;74901;55.024;73.254;2024-02-28T08:44:40;101989.94;;;-0.33;47.74
84677;BME280;74901;55.024;73.254;2024-02-28T08:47:09;102005.31;;;0.06;46.58
84677;BME280;74901;55.024;73.254;2024-02-28T08:49:40;101996.47;;;0.24;47.33
84677;BME280;74901;55.024;73.254;2024-02-28T08:52:09;101997.31;;;0.19;47.07
84677;BME280;74901;55.024;73.254;2024-02-28T08:54:38;101991.50;;;0.31;46.55
84677;BME280;74901;55.024;73.254;2024-02-28T08:57:07;101995.81;;;0.37;46.36
84677;BME280;74901;55.024;73.254;2024-02-28T08:59:36;101991.22;;;0.32;45.47
84677;BME280;74901;55.024;73.254;2024-02-28T09:02:05;101998.53;;;0.32;45.51
84677;BME280;74901;55.024;73.254;2024-02-28T09:04:34;101985.94;;;0.22;45.44
84677;BME280;74901;55.024;73.254;2024-02-28T09:07:04;101983.91;;;0.09;45.45
84677;BME280;74901;55.024;73.254;2024-02-28T09:09:33;101975.09;;;-0.02;44.95
84677;BME280;74901;55.024;73.254;2024-02-28T09:12:05;101967.72;;;0.04;45.53
84677;BME280;74901;55.024;73.254;2024-02-28T09:14:34;101968.16;;;0.16;45.76
84677;BME280;74901;55.024;73.254;2024-02-28T09:17:02;101972.00;;;0.10;45.31
84677;BME280;74901;55.024;73.254;2024-02-28T09:19:31;101971.44;;;-0.16;45.53
84677;BME280;74901;55.024;73.254;2024-02-28T09:22:00;101962.53;;;-0.89;46.18
84677;BME280;74901;55.024;73.254;2024-02-28T09:24:31;101981.78;;;-1.06;46.62
84677;BME280;74901;55.024;73.254;2024-02-28T09:27:00;101978.63;;;-1.23;46.12
84677;BME280;74901;55.024;73.254;2024-02-28T09:29:27;101978.72;;;-1.43;46.60
84677;BME280;74901;55.024;73.254;2024-02-28T09:31:56;101978.53;;;-1.67;47.56
84677;BME280;74901;55.024;73.254;2024-02-28T09:34:25;101983.97;;;-1.87;47.52
84677;BME280;74901;55.024;73.254;2024-02-28T09:36:54;101986.63;;;-1.72;47.20
84677;BME280;74901;55.024;73.254;2024-02-28T09:39:22;101990.13;;;-1.77;47.29
84677;BME280;74901;55.024;73.254;2024-02-28T09:41:54;101970.44;;;-1.77;46.41
84677;BME280;74901;55.024;73.254;2024-02-28T09:44:23;101993.94;;;-1.88;47.18
84677;BME280;74901;55.024;73.254;2024-02-28T09:46:52;101994.47;;;-1.91;47.20
84677;BME280;74901;55.024;73.254;2024-02-28T09:49:22;101988.03;;;-2.05;46.83
84677;BME280;74901;55.024;73.254;2024-02-28T09:51:53;101967.28;;;-2.20;46.71
84677;BME280;74901;55.024;73.254;2024-02-28T09:54:22;101968.59;;;-1.97;47.16
84677;BME280;74901;55.024;73.254;2024-02-28T09:56:52;101973.22;;;-2.18;47.26
84677;BME280;74901;55.024;73.254;2024-02-28T09:59:24;101965.41;;;-2.45;47.48
84677;BME280;74901;55.024;73.254;2024-02-28T10:01:55;101961.63;;;-2.64;48.14
84677;BME280;74901;55.024;73.254;2024-02-28T10:04:26;101973.72;;;-2.87;48.27
84677;BME280;74901;55.024;73.254;2024-02-28T10:06:56;101951.38;;;-2.92;47.82
84677;BME280;74901;55.024;73.254;2024-02-28T10:09:25;101958.97;;;-2.54;47.16
84677;BME280;74901;55.024;73.254;2024-02-28T10:11:55;101969.19;;;-2.25;47.52
84677;BME280;74901;55.024;73.254;2024-02-28T10:14:24;101980.22;;;-1.91;45.43
84677;BME280;74901;55.024;73.254;2024-02-28T10:16:53;101977.13;;;-1.59;45.77
84677;BME280;74901;55.024;73.254;2024-02-28T10:19:23;101977.31;;;0.44;43.10
84677;BME280;74901;55.024;73.254;2024-02-28T10:21:52;101955.34;;;3.94;37.83
84677;BME280;74901;55.024;73.254;2024-02-28T10:24:24;101954.41;;;7.15;33.17
84677;BME280;74901;55.024;73.254;2024-02-28T10:26:53;101945.44;;;9.82;29.17
84677;BME280;74901;55.024;73.254;2024-02-28T10:29:25;101943.25;;;11.55;26.78
84677;BME280;74901;55.024;73.254;2024-02-28T10:31:55;101945.41;;;10.57;26.70
84677;BME280;74901;55.024;73.254;2024-02-28T10:34:24;101956.56;;;9.86;27.57
84677;BME280;74901;55.024;73.254;2024-02-28T10:36:53;101949.22;;;8.94;27.41
84677;BME280;74901;55.024;73.254;2024-02-28T10:39:22;101952.19;;;8.65;27.19
84677;BME280;74901;55.024;73.254;2024-02-28T10:41:53;101943.19;;;8.76;27.11
84677;BME280;74901;55.024;73.254;2024-02-28T10:44:24;101939.34;;;7.96;27.34
84677;BME280;74901;55.024;73.254;2024-02-28T10:46:54;101959.41;;;8.57;27.12
84677;BME280;74901;55.024;73.254;2024-02-28T10:49:22;101960.09;;;10.80;25.08
84677;BME280;74901;55.024;73.254;2024-02-28T10:51:55;101969.06;;;12.54;22.69
84677;BME280;74901;55.024;73.254;2024-02-28T10:54:25;101963.13;;;10.91;24.56
84677;BME280;74901;55.024;73.254;2024-02-28T10:56:57;101959.91;;;6.57;29.41
84677;BME280;74901;55.024;73.254;2024-02-28T10:59:30;101953.63;;;4.06;33.43
84677;BME280;74901;55.024;73.254;2024-02-28T11:02:02;101959.50;;;3.11;35.07
84677;BME280;74901;55.024;73.254;2024-02-28T11:04:31;101966.13;;;2.41;36.02
84677;BME280;74901;55.024;73.254;2024-02-28T11:07:01;101962.50;;;1.21;36.87
84677;BME280;74901;55.024;73.254;2024-02-28T11:09:30;101963.75;;;0.92;37.94
84677;BME280;74901;55.024;73.254;2024-02-28T11:11:59;101965.06;;;3.06;34.77
84677;BME280;74901;55.024;73.254;2024-02-28T11:14:29;101946.22;;;5.03;31.79
84677;BME280;74901;55.024;73.254;2024-02-28T11:17:02;101947.56;;;6.80;29.20
84677;BME280;74901;55.024;73.254;2024-02-28T11:19:32;101936.81;;;8.03;27.93
84677;BME280;74901;55.024;73.254;2024-02-28T11:22:01;101934.94;;;8.64;27.26
84677;BME280;74901;55.024;73.254;2024-02-28T11:24:31;101930.97;;;8.37;27.28
84677;BME280;74901;55.024;73.254;2024-02-28T11:26:58;101936.91;;;8.64;27.29
84677;BME280;74901;55.024;73.254;2024-02-28T11:29:30;101937.06;;;9.07;27.15
84677;BME280;74901;55.024;73.254;2024-02-28T11:31:59;101932.28;;;9.32;26.52
84677;BME280;74901;55.024;73.254;2024-02-28T11:34:29;101939.56;;;9.12;26.92
84677;BME280;74901;55.024;73.254;2024-02-28T11:36:58;101935.97;;;8.60;27.32
84677;BME280;74901;55.024;73.254;2024-02-28T11:39:26;101930.59;;;8.87;26.78
84677;BME280;74901;55.024;73.254;2024-02-28T11:42:02;101955.00;;;7.42;28.08
84677;BME280;74901;55.024;73.254;2024-02-28T11:44:38;101939.84;;;6.15;29.75
84677;BME280;74901;55.024;73.254;2024-02-28T11:47:09;101939.75;;;5.85;30.28
84677;BME280;74901;55.024;73.254;2024-02-28T11:49:38;101942.81;;;5.84;30.35
84677;BME280;74901;55.024;73.254;2024-02-28T11:52:07;101934.81;;;5.70;29.92
84677;BME280;74901;55.024;73.254;2024-02-28T11:54:37;101930.81;;;5.67;30.26
84677;BME280;74901;55.024;73.254;2024-02-28T11:57:07;101927.63;;;5.48;31.03
84677;BME280;74901;55.024;73.254;2024-02-28T11:59:38;101929.38;;;4.27;32.31
84677;BME280;74901;55.024;73.254;2024-02-28T12:02:12;101920.47;;;4.44;32.26
84677;BME280;74901;55.024;73.254;2024-02-28T12:04:41;101922.75;;;4.11;32.79
84677;BME280;74901;55.024;73.254;2024-02-28T12:07:10;101926.50;;;4.32;32.20
84677;BME280;74901;55.024;73.254;2024-02-28T12:09:39;101916.06;;;4.17;32.49
84677;BME280;74901;55.024;73.254;2024-02-28T12:12:12;101908.63;;;3.70;32.97
84677;BME280;74901;55.024;73.254;2024-02-28T12:14:43;101928.53;;;2.21;36.17
84677;BME280;74901;55.024;73.254;2024-02-28T12:17:14;101921.00;;;0.46;37.79
84677;BME280;74901;55.024;73.254;2024-02-28T12:19:42;101926.84;;;-1.25;40.83
84677;BME280;74901;55.024;73.254;2024-02-28T12:22:11;101949.78;;;-2.17;42.21
84677;BME280;74901;55.024;73.254;2024-02-28T12:24:40;101934.16;;;-2.05;41.49
84677;BME280;74901;55.024;73.254;2024-02-28T12:27:10;101935.41;;;-1.77;40.58
84677;BME280;74901;55.024;73.254;2024-02-28T12:29:39;101930.63;;;-2.00;41.06
84677;BME280;74901;55.024;73.254;2024-02-28T12:32:09;101935.50;;;-2.13;41.20
84677;BME280;74901;55.024;73.254;2024-02-28T12:34:39;101924.22;;;-2.50;41.36
84677;BME280;74901;55.024;73.254;2024-02-28T12:37:07;101922.28;;;-3.10;42.95
84677;BME280;74901;55.024;73.254;2024-02-28T12:39:40;101930.78;;;-3.49;43.34
84677;BME280;74901;55.024;73.254;2024-02-28T12:42:09;101931.16;;;-3.82;43.76
84677;BME280;74901;55.024;73.254;2024-02-28T12:44:39;101932.00;;;-4.19;43.60
84677;BME280;74901;55.024;73.254;2024-02-28T12:47:14;101941.72;;;-4.50;44.79
84677;BME280;74901;55.024;73.254;2024-02-28T12:49:44;101939.31;;;-4.83;44.70
84677;BME280;74901;55.024;73.254;2024-02-28T12:52:13;101944.31;;;-5.18;45.55
84677;BME280;74901;55.024;73.254;2024-02-28T12:54:42;101940.25;;;-5.43;45.86
84677;BME280;74901;55.024;73.254;2024-02-28T12:57:11;101939.53;;;-5.60;46.46
84677;BME280;74901;55.024;73.254;2024-02-28T12:59:43;101947.03;;;-5.79;47.38